Time;durP1;ratioP1;P1;durP2;ratioP2;P2;SDS_P1;SDS_P2;PMS_P1;PMS_P2;Temp;Humidity;BMP_temperature;BMP_pressure;BME280_temperature;BME280_humidity;BME280_pressure;Samples;Min_cycle;Max_cycle;Signal;HPM_P1;HPM_P2
2023/06/01 00:01:37;;;;;;;;;29.60;27.80;;;;;19.16;54.91;99415.75;5088107;28;8840;-77
2023/06/01 00:04:07;;;;;;;;;26.20;23.80;;;;;19.17;55.00;99420.16;5053763;28;8859;-78
2023/06/01 00:06:38;;;;;;;;;26.80;25.60;;;;;19.13;54.82;99424.78;5088507;28;8824;-77
2023/06/01 00:09:07;;;;;;;;;32.00;30.00;;;;;19.17;55.14;99428.13;5070229;28;8958;-79
2023/06/01 00:11:36;;;;;;;;;26.00;23.20;;;;;19.19;55.20;99432.41;5083723;28;8846;-79
2023/06/01 00:14:05;;;;;;;;;29.40;26.40;;;;;19.22;55.21;99420.75;5081991;28;8891;-77
2023/06/01 00:16:34;;;;;;;;;32.40;31.60;;;;;19.25;55.17;99426.75;5068470;28;8840;-78
2023/06/01 00:19:03;;;;;;;;;31.80;31.00;;;;;19.26;55.00;99417.78;5067683;28;8844;-79
2023/06/01 00:21:35;;;;;;;;;33.60;32.00;;;;;19.25;54.66;99423.19;5068222;28;10060;-78
2023/06/01 00:24:06;;;;;;;;;34.60;32.80;;;;;19.28;54.97;99426.56;5066857;28;8994;-79
2023/06/01 00:26:35;;;;;;;;;33.60;32.40;;;;;19.26;54.80;99427.59;5059772;28;8845;-78
2023/06/01 00:29:03;;;;;;;;;35.00;32.00;;;;;19.28;54.87;99425.69;5088825;28;8887;-78
2023/06/01 00:31:32;;;;;;;;;32.60;31.60;;;;;19.30;54.65;99423.81;5080232;28;8847;-79
2023/06/01 00:34:01;;;;;;;;;34.20;32.80;;;;;19.24;54.71;99421.50;5069377;28;8851;-79
2023/06/01 00:36:31;;;;;;;;;31.20;28.80;;;;;19.13;54.85;99430.97;5068325;28;8868;-77
2023/06/01 00:39:03;;;;;;;;;28.20;27.00;;;;;19.08;54.70;99438.41;5066720;28;8885;-80
2023/06/01 00:41:34;;;;;;;;;27.00;26.40;;;;;19.16;54.68;99426.41;5078700;28;9623;-79
2023/06/01 00:44:03;;;;;;;;;29.60;29.40;;;;;19.17;54.60;99433.47;5070156;28;8851;-79
2023/06/01 00:46:32;;;;;;;;;26.80;26.00;;;;;19.15;54.47;99430.88;5088233;28;8878;-79
2023/06/01 00:49:01;;;;;;;;;25.60;24.80;;;;;19.13;54.23;99427.47;5070042;28;8855;-79
2023/06/01 00:51:30;;;;;;;;;27.40;24.00;;;;;19.06;54.41;99428.75;5086854;28;8869;-80
2023/06/01 00:54:00;;;;;;;;;29.00;27.40;;;;;19.10;54.55;99422.28;5064624;28;8870;-80
2023/06/01 00:56:31;;;;;;;;;27.20;25.00;;;;;19.10;54.38;99423.19;5046231;28;8891;-79
2023/06/01 00:59:01;;;;;;;;;26.20;23.60;;;;;19.11;54.33;99419.53;5064518;28;8855;-78
2023/06/01 01:01:31;;;;;;;;;24.00;23.60;;;;;19.09;54.35;99432.09;5064601;28;9592;-79
2023/06/01 01:04:00;;;;;;;;;25.60;25.60;;;;;19.09;54.01;99424.09;5048020;28;8907;-80
2023/06/01 01:06:41;;;;;;;;;30.20;27.60;;;;;19.23;53.99;99427.78;5064978;28;8873;-80
2023/06/01 01:09:23;;;;;;;;;20.40;20.40;;;;;19.27;53.78;99424.84;5031902;28;8840;-78
2023/06/01 01:12:00;;;;;;;;;28.80;24.20;;;;;19.31;53.29;99425.53;5066739;28;8901;-78
2023/06/01 01:14:39;;;;;;;;;31.00;29.00;;;;;19.36;53.23;99420.75;5067750;28;8900;-79
2023/06/01 01:17:14;;;;;;;;;26.40;26.20;;;;;19.28;53.18;99423.88;5068773;28;8870;-80
2023/06/01 01:19:57;;;;;;;;;27.40;27.00;;;;;19.33;52.97;99428.97;5068231;28;8854;-78
2023/06/01 01:22:44;;;;;;;;;26.20;25.40;;;;;19.08;53.54;99426.84;5051463;28;8846;-78
2023/06/01 01:25:50;;;;;;;;;27.60;26.80;;;;;19.11;53.66;99422.22;5068272;28;8901;-78
2023/06/01 01:28:39;;;;;;;;;30.80;29.60;;;;;19.15;53.59;99414.91;5070788;28;8873;-80
2023/06/01 01:31:10;;;;;;;;;29.40;28.60;;;;;19.01;54.00;99423.72;5091909;28;8847;-79
2023/06/01 01:33:42;;;;;;;;;34.40;28.00;;;;;19.05;53.75;99411.06;5090204;28;8851;-78
2023/06/01 01:36:11;;;;;;;;;26.60;25.60;;;;;18.99;53.66;99419.41;5089653;28;9041;-78
2023/06/01 01:38:40;;;;;;;;;26.20;24.80;;;;;18.91;53.70;99422.50;5090180;28;8875;-77
2023/06/01 01:41:09;;;;;;;;;23.60;23.60;;;;;18.96;53.66;99420.44;5088577;28;8852;-78
2023/06/01 01:43:40;;;;;;;;;23.60;20.80;;;;;18.94;53.76;99419.69;5089271;28;9584;-78
2023/06/01 01:46:17;;;;;;;;;22.60;22.60;;;;;18.92;54.01;99419.75;5105340;28;8844;-79
2023/06/01 01:48:53;;;;;;;;;23.00;22.60;;;;;18.95;53.69;99418.75;5110301;28;8828;-77
2023/06/01 01:51:35;;;;;;;;;26.80;25.20;;;;;18.90;53.74;99410.16;5108681;28;8836;-78
2023/06/01 01:54:07;;;;;;;;;26.80;21.60;;;;;18.89;53.63;99413.75;5059053;28;8837;-78
2023/06/01 01:56:37;;;;;;;;;23.00;21.00;;;;;18.91;53.63;99417.19;5090016;28;8977;-78
2023/06/01 01:59:08;;;;;;;;;26.80;24.20;;;;;18.91;53.45;99410.06;5091362;28;8844;-77
2023/06/01 02:01:41;;;;;;;;;22.20;21.00;;;;;18.94;53.27;99414.34;5091305;28;9056;-77
2023/06/01 02:04:11;;;;;;;;;23.00;23.00;;;;;18.91;53.47;99417.19;5108414;28;8852;-78
2023/06/01 02:06:40;;;;;;;;;23.40;22.00;;;;;18.96;53.34;99411.59;5091035;28;8894;-79
2023/06/01 02:09:09;;;;;;;;;22.40;21.60;;;;;19.00;53.18;99410.47;5091312;28;8839;-77
2023/06/01 02:11:38;;;;;;;;;18.60;17.20;;;;;19.02;53.13;99405.91;5106639;28;8835;-78
2023/06/01 02:14:10;;;;;;;;;27.80;25.20;;;;;19.05;52.88;99403.94;5107824;28;9038;-79
2023/06/01 02:16:39;;;;;;;;;25.20;25.20;;;;;19.03;52.97;99408.50;5083631;28;9737;-77
2023/06/01 02:19:10;;;;;;;;;28.60;23.00;;;;;19.08;52.97;99413.53;5086458;28;8884;-78
2023/06/01 02:21:39;;;;;;;;;16.20;16.00;;;;;19.09;52.91;99404.59;5073262;28;9569;-78
2023/06/01 02:24:09;;;;;;;;;21.40;20.80;;;;;19.15;52.73;99401.56;5085661;28;8858;-77
2023/06/01 02:26:38;;;;;;;;;24.20;23.20;;;;;19.21;52.49;99403.88;5094373;28;8856;-78
2023/06/01 02:29:07;;;;;;;;;24.40;23.80;;;;;19.27;52.40;99399.97;5088960;28;8847;-78
2023/06/01 02:31:37;;;;;;;;;26.00;24.40;;;;;19.29;52.42;99398.09;5090191;28;8863;-79
2023/06/01 02:34:07;;;;;;;;;24.80;22.60;;;;;19.33;52.10;99402.31;5089706;28;8870;-78
2023/06/01 02:36:35;;;;;;;;;27.40;26.80;;;;;19.35;52.33;99405.75;5105417;28;8863;-77
2023/06/01 02:39:04;;;;;;;;;26.00;26.00;;;;;19.27;52.39;99395.53;5089892;28;8948;-78
2023/06/01 02:41:34;;;;;;;;;28.80;28.80;;;;;19.05;52.95;99406.59;5037220;28;8891;-78
2023/06/01 02:44:04;;;;;;;;;24.60;22.40;;;;;19.21;52.93;99395.03;5088849;28;8845;-80
2023/06/01 02:46:34;;;;;;;;;24.20;22.60;;;;;19.23;52.80;99393.97;5092013;28;8932;-78
2023/06/01 02:49:04;;;;;;;;;27.00;25.80;;;;;19.31;52.89;99399.72;5071795;28;8928;-78
2023/06/01 02:51:33;;;;;;;;;25.20;25.20;;;;;19.37;52.73;99402.97;5088220;28;8859;-78
2023/06/01 02:54:13;;;;;;;;;33.20;29.00;;;;;19.40;52.60;99398.31;5088461;28;8847;-78
2023/06/01 02:56:42;;;;;;;;;25.80;23.40;;;;;19.35;53.27;99399.53;5087448;28;8837;-78
2023/06/01 02:59:34;;;;;;;;;28.80;26.40;;;;;19.09;54.08;99404.59;5050062;28;8946;-79
2023/06/01 03:02:05;;;;;;;;;29.20;28.00;;;;;19.13;54.04;99407.00;5066221;28;8838;-78
2023/06/01 03:04:35;;;;;;;;;27.40;26.20;;;;;19.23;54.06;99401.97;5066107;28;8826;-78
2023/06/01 03:07:04;;;;;;;;;29.40;28.20;;;;;19.28;54.11;99404.38;5049950;28;8893;-78
2023/06/01 03:09:54;;;;;;;;;33.00;29.80;;;;;19.35;53.80;99408.41;5066256;28;8842;-80
2023/06/01 03:12:55;;;;;;;;;71.50;57.00;;;;;19.41;53.43;99408.03;5049219;28;8844;-79
2023/06/01 03:15:24;;;;;;;;;47.75;41.25;;;;;19.46;53.20;99407.72;5065643;28;8900;-78
2023/06/01 03:17:53;;;;;;;;;30.20;28.40;;;;;19.51;52.66;99411.88;5049463;28;8896;-78
2023/06/01 03:20:23;;;;;;;;;29.00;29.00;;;;;19.54;52.86;99410.84;5049126;28;9701;-82
2023/06/01 03:22:52;;;;;;;;;33.00;29.20;;;;;19.54;52.42;99409.97;5049043;28;8977;-79
2023/06/01 03:25:21;;;;;;;;;29.40;27.80;;;;;19.61;52.39;99411.31;5048241;28;8844;-77
2023/06/01 03:27:50;;;;;;;;;30.80;30.00;;;;;19.62;52.44;99403.22;5049144;28;8968;-78
2023/06/01 03:30:19;;;;;;;;;30.20;30.20;;;;;19.69;52.50;99414.41;5066480;28;8837;-78
2023/06/01 03:32:48;;;;;;;;;29.00;27.60;;;;;19.75;52.15;99414.00;5032460;28;8877;-78
2023/06/01 03:35:17;;;;;;;;;27.80;27.80;;;;;19.81;51.95;99413.63;5049261;28;8890;-78
2023/06/01 03:37:47;;;;;;;;;51.75;42.75;;;;;19.90;52.19;99406.88;5032624;28;9607;-79
2023/06/01 03:40:19;;;;;;;;;52.50;40.75;;;;;19.97;51.92;99410.88;5087638;28;8980;-79
2023/06/01 03:42:49;;;;;;;;;32.80;31.00;;;;;19.96;52.41;99411.81;5062179;28;9617;-80
2023/06/01 03:45:18;;;;;;;;;29.00;27.00;;;;;19.99;51.90;99403.66;5088842;28;8871;-79
2023/06/01 03:47:47;;;;;;;;;26.80;26.80;;;;;20.00;51.82;99404.50;5098972;28;8897;-78
2023/06/01 03:50:17;;;;;;;;;27.00;25.60;;;;;20.01;51.72;99415.06;5048680;28;8842;-78
2023/06/01 03:52:47;;;;;;;;;20.40;20.20;;;;;20.09;51.28;99415.44;5070345;28;8884;-77
2023/06/01 03:55:16;;;;;;;;;44.75;38.25;;;;;20.03;51.77;99412.31;5084546;28;8850;-78
2023/06/01 03:58:14;;;;;;;;;48.00;38.50;;;;;20.12;51.50;99411.72;5045114;28;8889;-79
2023/06/01 04:00:44;;;;;;;;;34.00;31.00;;;;;20.10;51.54;99416.28;4994976;28;8871;-79
2023/06/01 04:03:15;;;;;;;;;29.60;28.20;;;;;20.08;51.30;99410.19;5034803;28;8862;-79
2023/06/01 04:05:49;;;;;;;;;41.50;34.75;;;;;20.12;51.23;99402.84;4993383;28;9144;-79
2023/06/01 04:08:21;;;;;;;;;57.00;46.25;;;;;20.13;51.13;99407.25;5027812;28;8879;-77
2023/06/01 04:10:51;;;;;;;;;27.00;25.80;;;;;20.12;51.27;99400.19;5017885;28;8964;-78
2023/06/01 04:13:20;;;;;;;;;30.60;30.40;;;;;20.10;51.59;99408.28;5039230;28;8854;-79
2023/06/01 04:15:49;;;;;;;;;29.20;27.20;;;;;20.10;51.35;99402.94;5009262;28;8942;-78
2023/06/01 04:18:21;;;;;;;;;32.00;28.60;;;;;20.12;51.41;99406.38;5008865;28;8874;-79
2023/06/01 04:20:59;;;;;;;;;31.20;28.40;;;;;20.10;51.27;99403.81;5008660;28;8842;-78
2023/06/01 04:23:31;;;;;;;;;31.60;29.40;;;;;20.09;51.61;99409.25;5010856;28;8851;-77
2023/06/01 04:26:02;;;;;;;;;31.20;29.80;;;;;20.13;50.98;99405.44;5023922;28;8842;-78
2023/06/01 04:28:32;;;;;;;;;31.00;30.40;;;;;20.20;50.92;99403.22;5008522;28;8838;-79
2023/06/01 04:31:02;;;;;;;;;36.60;32.20;;;;;20.24;50.55;99410.97;4989021;28;8857;-78
2023/06/01 04:33:31;;;;;;;;;35.40;30.80;;;;;20.29;49.60;99408.88;4942706;28;8868;-78
2023/06/01 04:36:00;;;;;;;;;39.00;33.50;;;;;20.39;49.37;99408.31;5063293;28;8883;-78
2023/06/01 04:38:34;;;;;;;;;39.20;35.00;;;;;20.47;49.59;99406.84;4964725;28;8867;-79
2023/06/01 04:41:04;;;;;;;;;28.60;26.60;;;;;20.56;49.07;99416.06;5015429;28;8861;-81
2023/06/01 04:43:33;;;;;;;;;30.20;29.40;;;;;20.63;49.22;99411.19;5061578;28;8882;-78
2023/06/01 04:46:04;;;;;;;;;26.80;24.00;;;;;20.79;48.99;99405.72;5054786;28;8842;-78
2023/06/01 04:48:34;;;;;;;;;28.00;25.40;;;;;20.89;48.77;99406.81;5054438;28;8878;-79
2023/06/01 04:51:05;;;;;;;;;24.60;21.80;;;;;20.98;48.04;99416.06;5038539;28;8838;-79
2023/06/01 04:53:35;;;;;;;;;20.40;19.80;;;;;21.07;47.31;99412.78;5070916;28;8871;-79
2023/06/01 04:56:05;;;;;;;;;27.40;24.20;;;;;21.05;46.97;99412.03;5061409;28;9017;-80
2023/06/01 04:58:34;;;;;;;;;29.40;27.00;;;;;21.05;48.42;99415.56;5091131;28;8851;-77
2023/06/01 05:01:03;;;;;;;;;31.20;28.60;;;;;21.01;49.35;99407.81;5066137;28;8854;-79
2023/06/01 05:03:32;;;;;;;;;39.75;34.50;;;;;20.70;50.11;99412.50;5076139;28;8871;-78
2023/06/01 05:06:01;;;;;;;;;26.60;24.00;;;;;20.82;50.13;99414.38;5072168;28;8846;-79
2023/06/01 05:08:31;;;;;;;;;33.80;31.00;;;;;21.09;49.43;99412.66;5079517;28;8889;-79
2023/06/01 05:11:02;;;;;;;;;28.40;27.60;;;;;21.02;49.42;99409.56;5080323;28;8845;-80
2023/06/01 05:13:31;;;;;;;;;29.40;29.00;;;;;21.04;49.66;99416.50;5076903;28;8864;-78
2023/06/01 05:16:01;;;;;;;;;37.20;33.20;;;;;21.11;49.66;99414.28;5071142;28;8866;-77
2023/06/01 05:18:30;;;;;;;;;32.80;30.40;;;;;21.09;49.06;99404.63;5071661;28;8850;-78
2023/06/01 05:20:59;;;;;;;;;19.20;18.40;;;;;21.31;47.61;99415.59;5033021;28;8936;-79
2023/06/01 05:23:29;;;;;;;;;25.00;24.20;;;;;21.48;47.46;99417.13;5087824;28;8854;-76
2023/06/01 05:26:01;;;;;;;;;27.60;26.20;;;;;21.72;47.22;99413.75;5095716;28;8840;-76
2023/06/01 05:28:36;;;;;;;;;24.20;22.40;;;;;21.95;46.73;99412.13;5092346;28;8845;-76
2023/06/01 05:31:07;;;;;;;;;18.80;18.80;;;;;21.90;46.40;99417.81;5041624;28;8867;-76
2023/06/01 05:33:44;;;;;;;;;20.20;19.60;;;;;22.11;45.33;99414.56;5074907;28;8844;-78
2023/06/01 05:36:16;;;;;;;;;16.20;16.20;;;;;22.29;45.35;99410.59;5108721;28;8902;-78
2023/06/01 05:38:44;;;;;;;;;19.40;17.40;;;;;22.42;44.55;99415.94;5072811;28;8878;-80
2023/06/01 05:41:14;;;;;;;;;12.00;12.00;;;;;22.48;44.12;99418.16;5088325;28;8871;-79
2023/06/01 05:43:46;;;;;;;;;15.00;14.20;;;;;22.68;44.10;99411.34;5092550;28;8864;-79
2023/06/01 05:46:15;;;;;;;;;12.80;12.80;;;;;22.68;43.70;99413.19;5041122;28;8836;-78
2023/06/01 05:48:44;;;;;;;;;17.00;15.60;;;;;22.84;43.64;99411.06;5074781;28;9700;-77
2023/06/01 05:51:15;;;;;;;;;20.40;19.60;;;;;22.98;43.16;99418.97;5041584;28;8828;-77
2023/06/01 05:53:44;;;;;;;;;14.00;14.00;;;;;23.18;43.07;99414.78;5074943;28;8882;-78
2023/06/01 05:56:13;;;;;;;;;18.20;18.20;;;;;23.37;42.62;99418.75;5053967;28;9002;-76
2023/06/01 05:58:42;;;;;;;;;9.20;8.40;;;;;23.58;42.07;99413.56;5088455;28;8993;-77
2023/06/01 06:01:13;;;;;;;;;13.20;11.20;;;;;23.76;40.66;99419.34;5088455;28;8871;-78
2023/06/01 06:03:42;;;;;;;;;14.20;13.40;;;;;23.88;40.47;99421.06;5088608;28;8859;-78
2023/06/01 06:06:11;;;;;;;;;12.80;12.40;;;;;24.06;39.75;99409.84;5089876;28;8852;-79
2023/06/01 06:08:40;;;;;;;;;15.80;15.00;;;;;24.05;40.74;99422.41;5087253;28;8863;-78
2023/06/01 06:11:09;;;;;;;;;13.20;13.20;;;;;24.07;39.94;99420.44;5087447;28;8859;-77
2023/06/01 06:13:37;;;;;;;;;13.80;13.80;;;;;24.06;39.54;99420.59;5088837;28;8897;-77
2023/06/01 06:16:07;;;;;;;;;14.80;13.00;;;;;24.01;39.49;99420.09;5088404;28;8836;-78
2023/06/01 06:18:37;;;;;;;;;13.20;13.20;;;;;24.07;39.90;99419.59;5088542;28;8872;-78
2023/06/01 06:21:06;;;;;;;;;11.40;10.60;;;;;24.11;39.48;99416.56;5074843;28;8890;-77
2023/06/01 06:23:35;;;;;;;;;11.00;10.00;;;;;24.18;39.14;99416.94;5080284;28;8876;-79
2023/06/01 06:26:04;;;;;;;;;12.00;11.00;;;;;24.27;38.84;99416.22;5080581;28;8858;-78
2023/06/01 06:28:32;;;;;;;;;11.80;10.60;;;;;24.29;39.15;99421.47;5081304;28;8876;-77
2023/06/01 06:31:01;;;;;;;;;15.00;13.20;;;;;24.24;38.51;99423.66;5089004;28;8836;-78
2023/06/01 06:33:30;;;;;;;;;12.00;12.00;;;;;24.33;38.85;99431.81;5087907;28;8882;-78
2023/06/01 06:36:01;;;;;;;;;12.00;11.00;;;;;24.33;38.72;99426.47;5070120;28;8950;-77
2023/06/01 06:38:29;;;;;;;;;9.80;9.60;;;;;24.13;39.05;99428.06;5088990;28;8938;-77
2023/06/01 06:40:59;;;;;;;;;12.00;12.00;;;;;24.19;38.97;99431.22;5070879;28;8882;-79
2023/06/01 06:43:29;;;;;;;;;10.80;10.80;;;;;24.18;38.87;99438.44;5088569;28;8982;-78
2023/06/01 06:45:58;;;;;;;;;9.80;9.40;;;;;24.33;38.00;99439.03;5089123;28;8875;-77
2023/06/01 06:48:27;;;;;;;;;10.40;10.40;;;;;24.45;38.92;99438.06;5088196;28;8886;-78
2023/06/01 06:50:57;;;;;;;;;9.60;9.60;;;;;24.48;37.96;99442.31;5089304;28;8863;-79
2023/06/01 06:53:27;;;;;;;;;10.20;10.00;;;;;24.47;38.53;99449.53;5089122;28;8870;-78
2023/06/01 06:55:56;;;;;;;;;11.20;11.20;;;;;24.48;37.92;99440.50;5089346;28;8844;-79
2023/06/01 06:58:25;;;;;;;;;11.40;11.00;;;;;24.49;37.44;99444.03;5087655;28;8852;-77
2023/06/01 07:00:54;;;;;;;;;8.00;8.00;;;;;24.62;37.32;99442.06;5087191;28;8859;-78
2023/06/01 07:03:23;;;;;;;;;8.60;6.20;;;;;24.78;37.72;99438.16;5087920;28;8843;-78
2023/06/01 07:05:52;;;;;;;;;11.80;11.60;;;;;24.85;37.60;99444.72;5083188;28;8862;-80
2023/06/01 07:08:20;;;;;;;;;11.80;11.80;;;;;25.01;37.85;99450.53;5016905;28;8873;-78
2023/06/01 07:10:51;;;;;;;;;9.00;9.00;;;;;25.10;37.05;99451.63;5067566;28;8834;-77
2023/06/01 07:13:19;;;;;;;;;15.60;13.80;;;;;25.24;36.81;99451.28;5085753;28;8996;-78
2023/06/01 07:15:48;;;;;;;;;7.20;7.20;;;;;25.40;36.88;99448.22;5070075;28;8868;-79
2023/06/01 07:18:17;;;;;;;;;13.20;11.20;;;;;25.40;35.92;99450.06;5077011;28;8970;-80
2023/06/01 07:20:46;;;;;;;;;14.40;14.40;;;;;25.31;37.13;99448.94;5069304;28;8838;-78
2023/06/01 07:23:16;;;;;;;;;14.00;13.00;;;;;25.39;36.12;99440.25;5069118;28;8861;-78
2023/06/01 07:25:45;;;;;;;;;16.40;14.20;;;;;25.48;36.40;99442.16;5052413;28;8830;-77
2023/06/01 07:28:15;;;;;;;;;14.80;14.80;;;;;25.73;36.52;99443.59;5035512;28;8961;-79
2023/06/01 07:30:45;;;;;;;;;17.80;16.00;;;;;25.77;36.30;99446.88;5085900;28;8861;-77
2023/06/01 07:33:14;;;;;;;;;18.00;16.60;;;;;25.84;36.51;99448.06;5086019;28;8865;-78
2023/06/01 07:35:45;;;;;;;;;13.60;13.20;;;;;25.94;35.99;99448.16;5085454;28;9046;-79
2023/06/01 07:38:14;;;;;;;;;13.80;13.80;;;;;26.09;35.88;99447.66;5085229;28;8870;-78
2023/06/01 07:40:43;;;;;;;;;13.40;13.40;;;;;26.16;34.81;99447.13;5086099;28;8829;-79
2023/06/01 07:43:12;;;;;;;;;24.00;23.60;;;;;26.18;34.82;99451.38;5036772;28;8964;-79
2023/06/01 07:45:42;;;;;;;;;22.40;18.20;;;;;24.76;38.29;99446.34;5019289;28;8834;-76
2023/06/01 07:48:11;;;;;;;;;28.00;27.20;;;;;24.30;42.15;99445.53;5067987;28;8864;-80
2023/06/01 07:50:40;;;;;;;;;20.00;19.20;;;;;22.88;46.06;99450.06;5035523;28;8854;-78
2023/06/01 07:53:09;;;;;;;;;29.60;27.20;;;;;22.69;46.38;99447.03;5047977;28;8894;-77
2023/06/01 07:55:39;;;;;;;;;25.00;24.80;;;;;21.29;49.84;99446.94;5064886;28;8914;-79
2023/06/01 07:58:07;;;;;;;;;22.80;22.80;;;;;20.71;52.22;99448.94;5071811;28;8886;-78
2023/06/01 08:00:37;;;;;;;;;27.00;25.80;;;;;20.75;53.02;99444.28;5068116;28;8844;-78
2023/06/01 08:03:07;;;;;;;;;25.80;25.40;;;;;20.27;54.17;99439.28;5067748;28;8879;-78
2023/06/01 08:05:37;;;;;;;;;29.20;27.00;;;;;19.92;55.02;99449.47;5051648;28;8870;-78
2023/06/01 08:08:07;;;;;;;;;23.20;21.00;;;;;19.90;54.79;99452.22;5019151;28;8973;-78
2023/06/01 08:10:38;;;;;;;;;24.20;22.80;;;;;20.17;54.04;99441.66;5067865;28;8855;-78
2023/06/01 08:13:07;;;;;;;;;24.60;24.60;;;;;20.00;54.60;99444.50;5084403;28;8836;-78
2023/06/01 08:15:37;;;;;;;;;25.40;24.40;;;;;20.60;52.64;99438.09;5084619;28;8960;-77
2023/06/01 08:18:08;;;;;;;;;21.40;21.40;;;;;21.18;50.81;99445.00;5067709;28;8867;-80
2023/06/01 08:20:37;;;;;;;;;22.40;21.60;;;;;21.60;49.84;99436.88;5051036;28;8944;-79
2023/06/01 08:23:06;;;;;;;;;19.00;19.00;;;;;21.80;49.12;99440.81;5069080;28;8971;-78
2023/06/01 08:25:35;;;;;;;;;22.00;19.40;;;;;22.42;47.34;99434.69;5089096;28;8890;-77
2023/06/01 08:28:04;;;;;;;;;21.80;21.00;;;;;22.79;46.54;99440.91;5087824;28;8851;-77
2023/06/01 08:30:33;;;;;;;;;21.80;19.40;;;;;23.28;45.53;99438.22;5086469;28;8839;-79
2023/06/01 08:33:02;;;;;;;;;18.80;17.80;;;;;23.64;44.31;99441.75;5086233;28;8952;-77
2023/06/01 08:35:34;;;;;;;;;21.00;18.60;;;;;23.88;43.18;99439.00;5027627;28;8954;-77
2023/06/01 08:38:03;;;;;;;;;24.40;21.80;;;;;24.21;43.12;99434.66;5027761;28;8836;-79
2023/06/01 08:40:32;;;;;;;;;22.80;20.60;;;;;24.43;42.65;99439.16;5044298;28;8860;-78
2023/06/01 08:43:13;;;;;;;;;20.60;20.60;;;;;24.70;42.01;99433.38;5028489;28;8888;-77
2023/06/01 08:45:44;;;;;;;;;27.00;26.80;;;;;24.20;43.11;99436.47;5027880;28;8906;-78
2023/06/01 08:48:17;;;;;;;;;25.20;25.20;;;;;24.52;42.67;99435.72;5045585;28;8861;-79
2023/06/01 08:50:50;;;;;;;;;37.75;33.25;;;;;23.97;43.96;99439.13;5045284;28;8861;-79
2023/06/01 08:53:21;;;;;;;;;28.00;27.40;;;;;23.14;46.03;99447.31;5007974;28;8897;-79
2023/06/01 08:55:52;;;;;;;;;29.60;28.00;;;;;21.97;49.42;99440.50;5007942;28;8909;-79
2023/06/01 08:58:21;;;;;;;;;26.60;24.60;;;;;21.30;50.53;99440.63;5024210;28;8860;-78
2023/06/01 09:00:53;;;;;;;;;24.20;24.20;;;;;21.24;51.18;99433.03;5004225;28;8984;-78
2023/06/01 09:03:22;;;;;;;;;27.60;24.00;;;;;20.97;51.33;99435.72;4940488;28;8858;-78
2023/06/01 09:05:53;;;;;;;;;27.00;27.00;;;;;21.41;50.47;99431.91;5010576;28;8852;-78
2023/06/01 09:08:23;;;;;;;;;28.80;25.60;;;;;22.08;48.75;99428.19;5028016;28;9780;-78
2023/06/01 09:10:53;;;;;;;;;24.60;23.80;;;;;22.71;47.53;99426.34;5044065;28;8845;-77
2023/06/01 09:13:35;;;;;;;;;22.60;21.80;;;;;23.49;44.98;99425.00;5027807;28;8849;-77
2023/06/01 09:16:05;;;;;;;;;23.80;21.80;;;;;23.81;44.70;99425.22;5027703;28;8875;-78
2023/06/01 09:18:34;;;;;;;;;21.00;19.60;;;;;24.29;43.62;99424.16;5011365;28;8852;-78
2023/06/01 09:21:15;;;;;;;;;22.40;22.40;;;;;24.92;42.77;99419.03;5046986;28;8967;-77
2023/06/01 09:23:44;;;;;;;;;23.60;23.60;;;;;24.85;41.17;99417.81;5018047;28;8947;-77
2023/06/01 09:26:15;;;;;;;;;22.40;21.80;;;;;25.18;41.02;99419.53;5082775;28;8858;-78
2023/06/01 09:28:57;;;;;;;;;23.00;21.60;;;;;25.64;40.21;99422.84;5083800;28;8840;-80
2023/06/01 09:31:40;;;;;;;;;23.00;23.00;;;;;25.96;39.31;99413.84;5090816;28;8847;-78
2023/06/01 09:34:12;;;;;;;;;25.80;25.20;;;;;25.57;39.20;99414.47;5037942;28;8832;-78
2023/06/01 09:36:43;;;;;;;;;23.80;23.20;;;;;25.85;39.13;99415.63;5072909;28;8859;-78
2023/06/01 09:39:13;;;;;;;;;21.00;20.20;;;;;26.08;38.69;99408.25;5054843;28;8925;-78
2023/06/01 09:41:46;;;;;;;;;21.40;20.40;;;;;26.12;38.98;99414.22;5051505;28;8852;-81
2023/06/01 09:44:23;;;;;;;;;22.20;21.60;;;;;26.55;38.82;99423.00;5047806;28;8880;-79
2023/06/01 09:46:55;;;;;;;;;22.00;21.80;;;;;26.56;38.04;99413.94;5031260;28;8838;-82
2023/06/01 09:49:26;;;;;;;;;27.00;26.40;;;;;26.27;37.86;99417.41;5014428;28;9620;-78
2023/06/01 09:52:14;;;;;;;;;23.60;21.40;;;;;25.69;38.92;99416.09;4998275;28;8862;-77
2023/06/01 09:54:45;;;;;;;;;22.40;21.20;;;;;25.78;38.49;99414.44;5031524;28;8862;-78
2023/06/01 09:57:21;;;;;;;;;21.00;21.00;;;;;26.20;38.41;99410.84;5032306;28;8870;-77
2023/06/01 09:59:50;;;;;;;;;25.60;24.00;;;;;26.36;38.12;99413.00;5031176;28;8854;-79
2023/06/01 10:02:20;;;;;;;;;26.60;26.60;;;;;25.90;39.11;99413.41;5049157;28;8853;-80
2023/06/01 10:04:52;;;;;;;;;34.00;31.25;;;;;24.46;42.77;99398.59;5050664;28;8973;-80
2023/06/01 10:07:24;;;;;;;;;28.00;26.80;;;;;23.58;44.44;99406.41;5050684;28;8841;-79
2023/06/01 10:09:57;;;;;;;;;30.00;28.80;;;;;23.63;44.82;99400.66;5050537;28;8946;-81
2023/06/01 10:12:28;;;;;;;;;29.00;28.00;;;;;23.43;45.86;99401.31;5034884;28;8842;-77
2023/06/01 10:14:57;;;;;;;;;25.60;25.60;;;;;24.11;45.16;99399.56;5056319;28;9109;-78
2023/06/01 10:17:27;;;;;;;;;35.00;32.25;;;;;24.36;43.83;99395.81;5087946;28;8847;-79
2023/06/01 10:19:57;;;;;;;;;37.25;34.00;;;;;24.01;44.49;99398.63;5071642;28;8856;-77
2023/06/01 10:22:27;;;;;;;;;27.20;27.20;;;;;24.59;43.53;99385.88;5089857;28;8847;-79
2023/06/01 10:25:00;;;;;;;;;30.40;28.60;;;;;24.87;42.07;99384.47;5071567;28;8999;-79
2023/06/01 10:27:36;;;;;;;;;29.40;29.40;;;;;25.18;41.66;99387.25;5088349;28;8981;-78
2023/06/01 10:30:08;;;;;;;;;30.00;28.80;;;;;24.01;43.07;99382.50;5087957;28;8844;-79
2023/06/01 10:32:48;;;;;;;;;28.60;28.60;;;;;24.15;43.01;99371.56;5038368;28;8843;-78
2023/06/01 10:36:05;;;;;;;;;28.80;27.60;;;;;24.57;42.17;99373.56;5053176;28;8901;-78
2023/06/01 10:38:35;;;;;;;;;28.20;27.80;;;;;24.28;41.78;99366.91;5089044;28;9001;-78
2023/06/01 10:41:28;;;;;;;;;23.00;22.60;;;;;24.90;41.39;99362.69;5088798;28;8875;-78
2023/06/01 10:43:58;;;;;;;;;25.60;23.20;;;;;25.22;40.91;99350.19;5087874;28;8851;-78
2023/06/01 10:46:43;;;;;;;;;23.20;22.60;;;;;25.66;39.63;99341.00;5087612;28;8894;-77
2023/06/01 10:49:13;;;;;;;;;27.20;26.40;;;;;25.60;39.40;99348.75;5067804;28;8989;-77
2023/06/01 10:51:42;;;;;;;;;25.40;24.00;;;;;25.76;38.26;99335.66;5069458;28;8859;-77
2023/06/01 10:54:30;;;;;;;;;25.60;24.00;;;;;25.44;37.92;99338.47;5067876;28;8842;-78
2023/06/01 10:57:22;;;;;;;;;24.60;24.20;;;;;25.82;37.89;99336.94;5067426;28;8904;-78
2023/06/01 11:00:14;;;;;;;;;21.60;20.80;;;;;26.05;38.42;99330.38;5087123;28;8851;-80
2023/06/01 11:02:56;;;;;;;;;23.00;22.60;;;;;26.45;38.35;99326.78;5089039;28;8881;-80
2023/06/01 11:05:41;;;;;;;;;30.40;29.60;;;;;26.80;38.50;99325.41;5087304;28;8909;-76
2023/06/01 11:08:48;;;;;;;;;28.60;23.40;;;;;27.25;36.19;99318.59;5089042;28;8839;-78
2023/06/01 11:11:21;;;;;;;;;26.80;26.00;;;;;27.18;36.90;99321.00;5087767;28;8895;-79
2023/06/01 11:14:09;;;;;;;;;25.80;24.80;;;;;27.61;36.01;99308.00;5086970;28;8852;-79
2023/06/01 11:16:38;;;;;;;;;19.60;19.60;;;;;27.54;34.67;99317.66;5087240;28;8862;-80
2023/06/01 11:19:08;;;;;;;;;35.00;32.20;;;;;27.28;35.92;99312.03;5088930;28;8878;-79
2023/06/01 11:21:40;;;;;;;;;26.60;26.20;;;;;26.70;36.97;99305.69;5070154;28;8860;-79
2023/06/01 11:24:11;;;;;;;;;26.40;26.40;;;;;26.40;37.07;99303.94;5088241;28;8848;-77
2023/06/01 11:26:43;;;;;;;;;21.60;20.40;;;;;25.06;39.47;99305.78;5088402;28;8847;-78
2023/06/01 11:29:15;;;;;;;;;26.00;25.20;;;;;24.18;41.02;99297.94;5069953;28;9637;-77
2023/06/01 11:31:46;;;;;;;;;36.50;33.50;;;;;23.50;43.63;99303.28;5086983;28;8901;-78
2023/06/01 11:34:18;;;;;;;;;29.60;28.80;;;;;24.04;42.06;99289.16;5070135;28;8880;-79
2023/06/01 11:36:50;;;;;;;;;23.60;23.20;;;;;24.64;40.89;99286.03;5084897;28;8842;-78
2023/06/01 11:39:22;;;;;;;;;29.20;29.20;;;;;24.49;40.80;99286.38;5085037;28;8990;-78
2023/06/01 11:42:04;;;;;;;;;30.20;28.80;;;;;24.28;42.13;99280.06;5084951;28;8866;-78
2023/06/01 11:44:34;;;;;;;;;34.00;31.75;;;;;24.54;40.83;99272.53;5085078;28;8877;-77
2023/06/01 11:47:05;;;;;;;;;29.75;29.50;;;;;24.08;42.37;99277.16;5068226;28;8826;-81
2023/06/01 11:49:43;;;;;;;;;27.80;26.20;;;;;24.91;40.88;99272.16;5067746;28;8847;-79